createdAt,value
2019-03-01T00:05:03.018Z,21.43
2019-03-01T00:10:27.618Z,22.77
2019-03-01T00:15:43.392Z,21.90
2019-03-01T00:20:58.462Z,18.63
2019-03-01T00:26:10.644Z,22.87
2019-03-01T00:31:35.003Z,24.33
2019-03-01T00:36:50.206Z,21.10
2019-03-01T00:42:13.709Z,19.50
2019-03-01T00:47:17.005Z,15.40
2019-03-01T00:52:20.695Z,16.20
2019-03-01T00:57:24.230Z,15.00
2019-03-01T01:02:27.520Z,16.87
2019-03-01T01:07:31.078Z,20.10
2019-03-01T01:12:34.370Z,16.80
2019-03-01T01:17:37.668Z,16.90
2019-03-01T01:22:41.225Z,14.53
2019-03-01T01:27:44.753Z,15.23
2019-03-01T01:32:48.064Z,16.07
2019-03-01T01:37:51.601Z,14.30
2019-03-01T01:42:55.137Z,12.73
2019-03-01T01:47:58.431Z,13.30
2019-03-01T01:53:01.751Z,14.97
2019-03-01T01:58:05.031Z,16.30
2019-03-01T02:03:08.565Z,16.03
2019-03-01T02:08:11.931Z,19.33
2019-03-01T02:13:15.462Z,19.40
2019-03-01T02:18:19.005Z,18.80
2019-03-01T02:23:22.539Z,17.77
2019-03-01T02:28:25.903Z,17.73
2019-03-01T02:33:29.499Z,14.53
2019-03-01T02:38:33.072Z,20.97
2019-03-01T02:43:36.356Z,22.23
2019-03-01T02:48:39.909Z,18.73
2019-03-01T02:53:43.210Z,20.00
2019-03-01T02:58:46.499Z,18.40
2019-03-01T03:03:50.026Z,17.60
2019-03-01T03:08:53.394Z,19.47
2019-03-01T03:13:56.934Z,17.70
2019-03-01T03:19:00.229Z,20.20
2019-03-01T03:24:03.538Z,19.47
2019-03-01T03:29:07.107Z,21.30
2019-03-01T03:34:10.397Z,21.57
2019-03-01T03:39:13.721Z,21.10
2019-03-01T03:44:17.015Z,23.27
2019-03-01T03:49:20.581Z,24.37
2019-03-01T03:54:23.892Z,26.47
2019-03-01T03:59:27.191Z,25.30
2019-03-01T04:04:30.564Z,25.13
2019-03-01T04:09:34.282Z,24.83
2019-03-01T04:14:37.844Z,24.97
2019-03-01T04:19:41.141Z,24.43
2019-03-01T04:24:44.685Z,28.57
2019-03-01T04:29:47.994Z,28.13
2019-03-01T04:34:51.539Z,25.70
2019-03-01T04:39:54.847Z,25.00
2019-03-01T04:44:58.138Z,25.20
2019-03-01T04:50:01.428Z,24.40
2019-03-01T04:55:07.650Z,23.63
2019-03-01T05:00:13.648Z,24.97
2019-03-01T05:05:17.432Z,23.40
2019-03-01T05:10:20.975Z,27.03
2019-03-01T05:15:25.220Z,24.87
2019-03-01T05:20:30.485Z,27.73
2019-03-01T05:25:33.544Z,29.30
2019-03-01T05:30:37.144Z,29.97
2019-03-01T05:35:40.808Z,33.40
2019-03-01T05:40:44.362Z,30.03
2019-03-01T05:45:47.669Z,32.37
2019-03-01T05:50:51.239Z,30.70
2019-03-01T05:55:57.586Z,36.17
2019-03-01T06:01:04.054Z,30.80
2019-03-01T06:06:07.964Z,30.57
2019-03-01T06:11:14.672Z,32.87
2019-03-01T06:16:24.269Z,31.97
2019-03-01T06:21:48.546Z,32.80
2019-03-01T06:27:23.915Z,38.33
2019-03-01T06:32:30.627Z,35.13
2019-03-01T06:37:54.099Z,40.87
2019-03-01T06:43:03.529Z,33.17
2019-03-01T06:48:06.841Z,38.60
2019-03-01T06:53:10.140Z,41.37
2019-03-01T06:58:17.124Z,43.50
2019-03-01T07:03:20.418Z,42.27
2019-03-01T07:08:23.722Z,44.40
2019-03-01T07:13:27.188Z,47.23
2019-03-01T07:18:30.741Z,43.00
2019-03-01T07:23:37.086Z,49.77
2019-03-01T07:28:39.096Z,50.90
2019-03-01T07:33:42.405Z,46.77
2019-03-01T07:38:45.936Z,48.07
2019-03-01T07:43:49.237Z,53.87
2019-03-01T07:48:52.786Z,52.80
2019-03-01T07:53:56.356Z,56.53
2019-03-01T07:59:00.335Z,61.50
2019-03-01T08:04:04.625Z,63.90
2019-03-01T08:09:12.862Z,66.83
2019-03-01T08:14:16.412Z,70.83
2019-03-01T08:19:22.549Z,72.57
2019-03-01T08:24:24.994Z,67.07
2019-03-01T08:29:30.679Z,59.40
2019-03-01T08:34:35.141Z,68.77
2019-03-01T08:39:39.745Z,70.90
2019-03-01T08:44:43.972Z,76.83
2019-03-01T08:49:47.341Z,71.90
2019-03-01T08:54:50.639Z,86.60
2019-03-01T08:59:53.967Z,97.17
2019-03-01T09:04:57.267Z,95.97
2019-03-01T09:10:10.646Z,113.33
2019-03-01T09:15:15.461Z,98.60
2019-03-01T09:20:19.149Z,106.73
2019-03-01T09:25:22.498Z,94.53
2019-03-01T09:30:26.475Z,125.37
2019-03-01T09:35:34.103Z,124.07
2019-03-01T09:40:37.407Z,141.13
2019-03-01T09:45:40.944Z,137.33
2019-03-01T09:50:44.254Z,144.93
2019-03-01T09:55:47.827Z,111.20
2019-03-01T10:01:02.383Z,104.17
2019-03-01T10:06:05.945Z,99.37
2019-03-01T10:11:09.249Z,107.63
2019-03-01T10:16:12.560Z,102.40
2019-03-01T10:21:16.099Z,96.10
2019-03-01T10:26:19.668Z,120.33
2019-03-01T10:31:23.091Z,114.03
2019-03-01T10:36:26.360Z,107.93
2019-03-01T10:41:29.898Z,113.37
2019-03-01T10:46:33.430Z,112.40
2019-03-01T10:51:36.738Z,121.47
2019-03-01T10:56:43.102Z,134.73
2019-03-01T11:01:46.406Z,124.73
2019-03-01T11:06:51.491Z,105.43
2019-03-01T11:11:55.026Z,100.17
2019-03-01T11:16:58.322Z,92.03
2019-03-01T11:22:01.615Z,85.90
2019-03-01T11:27:12.728Z,82.30
2019-03-01T11:32:10.634Z,73.13
2019-03-01T11:37:13.922Z,72.20
2019-03-01T11:42:17.479Z,70.43
2019-03-01T11:47:20.769Z,71.50
2019-03-01T11:52:24.080Z,69.83
2019-03-01T11:57:28.290Z,70.50
2019-03-01T12:02:31.659Z,72.93
2019-03-01T12:07:35.226Z,73.87
2019-03-01T12:12:38.536Z,73.43
2019-03-01T12:17:41.843Z,78.77
2019-03-01T12:22:45.465Z,75.03
2019-03-01T12:27:48.757Z,78.07
2019-03-01T12:32:52.124Z,67.10
2019-03-01T12:37:55.437Z,54.23
2019-03-01T12:42:58.812Z,41.57
2019-03-01T12:48:02.402Z,36.90
2019-03-01T12:53:05.769Z,35.03
2019-03-01T12:58:09.070Z,34.00
2019-03-01T13:03:12.607Z,30.77
2019-03-01T13:08:16.689Z,33.47
2019-03-01T13:13:20.013Z,24.77
2019-03-01T13:18:25.375Z,41.57
2019-03-01T13:23:28.741Z,34.30
2019-03-01T13:28:32.486Z,37.40
2019-03-01T13:33:37.527Z,35.43
2019-03-01T13:38:41.040Z,35.10
2019-03-01T13:43:44.587Z,37.30
2019-03-01T13:48:50.955Z,33.07
2019-03-01T13:53:53.403Z,26.60
2019-03-01T13:58:59.629Z,24.30
2019-03-01T14:04:03.274Z,31.27
2019-03-01T14:09:09.950Z,25.50
2019-03-01T14:14:13.304Z,30.20
2019-03-01T14:19:16.868Z,25.90
2019-03-01T14:24:20.213Z,31.30
2019-03-01T14:29:23.760Z,25.57
2019-03-01T14:34:27.343Z,28.30
2019-03-01T14:39:30.698Z,25.20
2019-03-01T14:44:34.681Z,28.23
2019-03-01T14:49:38.404Z,28.87
2019-03-01T14:54:45.165Z,22.10
2019-03-01T14:59:53.014Z,25.30
2019-03-01T15:04:56.682Z,23.33
2019-03-01T15:10:00.464Z,24.37
2019-03-01T15:15:05.295Z,24.73
2019-03-01T15:20:12.019Z,25.87
2019-03-01T15:25:15.314Z,27.13
2019-03-01T15:30:18.851Z,26.17
2019-03-01T15:35:22.156Z,25.63
2019-03-01T15:40:27.815Z,28.27
2019-03-01T15:45:31.083Z,25.57
2019-03-01T15:50:34.399Z,32.23
2019-03-01T15:55:37.691Z,27.53
2019-03-01T16:00:41.316Z,24.77
2019-03-01T16:05:44.864Z,24.00
2019-03-01T16:10:48.529Z,24.40
2019-03-01T16:15:52.186Z,25.47
2019-03-01T16:20:55.877Z,26.57
2019-03-01T16:25:59.166Z,24.40
2019-03-01T16:31:02.468Z,25.07
2019-03-01T16:36:07.396Z,24.90
2019-03-01T16:41:10.726Z,22.23
2019-03-01T16:46:14.272Z,18.80
2019-03-01T16:51:18.634Z,18.93
2019-03-01T16:56:22.612Z,21.23
2019-03-01T17:01:29.774Z,16.07
2019-03-01T17:06:35.316Z,17.47
2019-03-01T17:11:41.369Z,14.87
2019-03-01T17:16:45.621Z,15.90
2019-03-01T17:21:51.017Z,15.50
2019-03-01T17:26:54.481Z,10.63
2019-03-01T17:31:58.815Z,13.13
2019-03-01T17:37:03.024Z,15.10
2019-03-01T17:42:06.318Z,10.17
2019-03-01T17:47:10.691Z,14.80
2019-03-01T17:52:14.406Z,13.47
2019-03-01T17:57:17.711Z,11.77
2019-03-01T18:02:21.552Z,9.23
2019-03-01T18:07:27.201Z,9.80
2019-03-01T18:12:30.162Z,11.10
2019-03-01T18:17:36.411Z,6.97
2019-03-01T18:22:38.712Z,7.20
2019-03-01T18:27:42.019Z,8.00
2019-03-01T18:32:46.004Z,8.90
2019-03-01T18:37:51.505Z,9.63
2019-03-01T18:42:54.547Z,9.60
2019-03-01T18:47:57.825Z,8.87
2019-03-01T18:53:03.820Z,8.63
2019-03-01T18:58:10.583Z,11.53
2019-03-01T19:03:13.007Z,8.23
2019-03-01T19:08:16.700Z,9.13
2019-03-01T19:13:20.676Z,9.13
2019-03-01T19:18:25.020Z,6.67
2019-03-01T19:23:29.347Z,7.50
2019-03-01T19:28:33.838Z,6.57
2019-03-01T19:33:37.838Z,6.40
2019-03-01T19:38:46.476Z,10.60
2019-03-01T19:43:55.631Z,8.77
2019-03-01T19:48:55.353Z,6.47
2019-03-01T19:54:01.227Z,8.30
2019-03-01T19:59:03.951Z,6.33
2019-03-01T20:04:07.606Z,7.33
2019-03-01T20:09:11.248Z,11.50
2019-03-01T20:14:16.952Z,8.50
2019-03-01T20:19:21.029Z,8.70
2019-03-01T20:24:25.492Z,14.80
2019-03-01T20:29:28.783Z,12.43
2019-03-01T20:34:34.775Z,10.67
2019-03-01T20:39:37.414Z,12.93
2019-03-01T20:44:40.721Z,12.23
2019-03-01T20:49:44.341Z,14.23
2019-03-01T20:54:47.691Z,13.40
2019-03-01T20:59:51.614Z,13.53
2019-03-01T21:04:55.191Z,14.13
2019-03-01T21:09:58.537Z,16.43
2019-03-01T21:15:02.217Z,13.77
2019-03-01T21:20:09.543Z,15.63
2019-03-01T21:25:25.742Z,14.43
2019-03-01T21:30:35.564Z,17.77
2019-03-01T21:35:38.878Z,16.10
2019-03-01T21:40:42.593Z,20.53
2019-03-01T21:45:46.012Z,18.73
2019-03-01T21:50:51.189Z,21.53
2019-03-01T21:55:54.337Z,19.27
2019-03-01T22:00:57.869Z,21.27
2019-03-01T22:06:01.411Z,19.93
2019-03-01T22:11:04.782Z,18.43
2019-03-01T22:16:08.343Z,22.30
2019-03-01T22:21:11.663Z,21.23
2019-03-01T22:26:15.992Z,20.90
2019-03-01T22:31:19.392Z,20.63
2019-03-01T22:36:22.692Z,21.87
2019-03-01T22:41:26.253Z,18.33
2019-03-01T22:46:29.788Z,16.43
2019-03-01T22:51:33.344Z,16.87
2019-03-01T22:56:36.960Z,11.40
2019-03-01T23:01:40.381Z,11.20
2019-03-01T23:06:43.681Z,8.90
2019-03-01T23:11:46.975Z,8.10
2019-03-01T23:16:54.185Z,10.37
2019-03-01T23:21:55.779Z,7.60
2019-03-01T23:26:59.589Z,8.33
2019-03-01T23:32:02.866Z,6.80
2019-03-01T23:37:06.402Z,7.73
2019-03-01T23:42:09.965Z,9.00
2019-03-01T23:47:13.504Z,7.83
2019-03-01T23:52:19.642Z,11.90
2019-03-01T23:57:22.069Z,10.00
